Terminal Aerodrome Forecast
Issued by NWS

Home | Current Version | Previous Version | Text Only | Print | Product List | Glossary On
Versions: 1 2 3 4 5 6 7 8 9 10 11 12 13 14 15
000
FTUS43 KICT 200500
TAFRSL
TAF
KRSL 200520Z 2006/2106 18011KT P6SM SKC
     FM201400 22010KT P6SM SKC
     FM202100 26008KT P6SM SCT080
     FM202300 02008KT P6SM VCTS BKN050CB=

USA.gov is the U.S. government's official web portal to all federal, state and local government web resources and services.